Terminal Aerodrome Forecast
Issued by NWS

Home | Current Version | Previous Version | Graphics & Text | Print | Product List | Glossary On
Versions: 1 2 3 4 5 6 7 8 9 10 11 12 13 14 15
284
FTUS45 KGGW 012337
TAFSDY
TAF
KSDY 012337Z 0200/0224 00000KT 5SM BR VCSH SCT015 OVC080
     FM020200 00000KT 5SM BR OVC020
     FM020600 00000KT 1/2SM FZFG OVC025
     FM021000 00000KT 3SM BR OVC015
     FM021800 24005KT P6SM BKN020=

USA.gov is the U.S. government's official web portal to all federal, state and local government web resources and services.